sensor_id;sensor_type;location;lat;lon;timestamp;temperature;humidity
3994;DHT22;2011;48.238;13.948;2022-11-20T00:00:21;2.50;99.90
3994;DHT22;2011;48.238;13.948;2022-11-20T00:02:48;2.50;99.90
3994;DHT22;2011;48.238;13.948;2022-11-20T00:05:15;2.60;99.90
3994;DHT22;2011;48.238;13.948;2022-11-20T00:07:42;2.60;99.90
3994;DHT22;2011;48.238;13.948;2022-11-20T00:10:09;2.50;99.90
3994;DHT22;2011;48.238;13.948;2022-11-20T00:12:36;2.60;99.90
3994;DHT22;2011;48.238;13.948;2022-11-20T00:15:04;2.60;99.90
3994;DHT22;2011;48.238;13.948;2022-11-20T00:17:33;2.60;99.90
3994;DHT22;2011;48.238;13.948;2022-11-20T00:20:00;2.60;99.90
3994;DHT22;2011;48.238;13.948;2022-11-20T00:22:27;2.60;99.90
3994;DHT22;2011;48.238;13.948;2022-11-20T00:24:54;2.60;99.90
3994;DHT22;2011;48.238;13.948;2022-11-20T00:27:22;2.60;99.90
3994;DHT22;2011;48.238;13.948;2022-11-20T00:29:49;2.60;99.90
3994;DHT22;2011;48.238;13.948;2022-11-20T00:32:16;2.60;99.90
3994;DHT22;2011;48.238;13.948;2022-11-20T00:34:45;2.60;99.90
3994;DHT22;2011;48.238;13.948;2022-11-20T00:37:12;2.60;99.90
3994;DHT22;2011;48.238;13.948;2022-11-20T00:39:39;2.60;99.90
3994;DHT22;2011;48.238;13.948;2022-11-20T00:42:06;2.70;99.90
3994;DHT22;2011;48.238;13.948;2022-11-20T00:44:33;2.70;99.90
3994;DHT22;2011;48.238;13.948;2022-11-20T00:47:00;2.70;99.90
3994;DHT22;2011;48.238;13.948;2022-11-20T00:49:27;2.70;99.90
3994;DHT22;2011;48.238;13.948;2022-11-20T00:51:55;2.70;99.90
3994;DHT22;2011;48.238;13.948;2022-11-20T00:54:22;2.70;99.90
3994;DHT22;2011;48.238;13.948;2022-11-20T00:56:49;2.70;99.90
3994;DHT22;2011;48.238;13.948;2022-11-20T00:59:16;2.70;99.90
3994;DHT22;2011;48.238;13.948;2022-11-20T01:01:43;2.70;99.90
3994;DHT22;2011;48.238;13.948;2022-11-20T01:04:11;2.70;99.90
3994;DHT22;2011;48.238;13.948;2022-11-20T01:06:39;2.70;99.90
3994;DHT22;2011;48.238;13.948;2022-11-20T01:09:09;2.70;99.90
3994;DHT22;2011;48.238;13.948;2022-11-20T01:11:38;2.70;99.90
3994;DHT22;2011;48.238;13.948;2022-11-20T01:14:09;2.70;99.90
3994;DHT22;2011;48.238;13.948;2022-11-20T01:16:38;2.70;99.90
3994;DHT22;2011;48.238;13.948;2022-11-20T01:19:06;2.70;99.90
3994;DHT22;2011;48.238;13.948;2022-11-20T01:21:35;2.70;99.90
3994;DHT22;2011;48.238;13.948;2022-11-20T01:24:04;2.70;99.90
3994;DHT22;2011;48.238;13.948;2022-11-20T01:26:35;2.70;99.90
3994;DHT22;2011;48.238;13.948;2022-11-20T01:29:03;2.70;99.90
3994;DHT22;2011;48.238;13.948;2022-11-20T01:31:33;2.70;99.90
3994;DHT22;2011;48.238;13.948;2022-11-20T01:34:01;2.70;99.90
3994;DHT22;2011;48.238;13.948;2022-11-20T01:36:30;2.70;99.90
3994;DHT22;2011;48.238;13.948;2022-11-20T01:38:59;2.60;99.90
3994;DHT22;2011;48.238;13.948;2022-11-20T01:41:28;2.60;99.90
3994;DHT22;2011;48.238;13.948;2022-11-20T01:44:16;2.60;99.90
3994;DHT22;2011;48.238;13.948;2022-11-20T01:46:52;2.70;99.90
3994;DHT22;2011;48.238;13.948;2022-11-20T01:49:25;2.60;99.90
3994;DHT22;2011;48.238;13.948;2022-11-20T01:51:57;2.60;99.90
3994;DHT22;2011;48.238;13.948;2022-11-20T01:54:28;2.50;99.90
3994;DHT22;2011;48.238;13.948;2022-11-20T01:56:59;2.50;99.90
3994;DHT22;2011;48.238;13.948;2022-11-20T01:59:29;2.50;99.90
3994;DHT22;2011;48.238;13.948;2022-11-20T02:01:57;2.50;99.90
3994;DHT22;2011;48.238;13.948;2022-11-20T02:04:24;2.50;99.90
3994;DHT22;2011;48.238;13.948;2022-11-20T02:06:57;2.50;99.90
3994;DHT22;2011;48.238;13.948;2022-11-20T02:09:25;2.50;99.90
3994;DHT22;2011;48.238;13.948;2022-11-20T02:11:53;2.50;99.90
3994;DHT22;2011;48.238;13.948;2022-11-20T02:14:20;2.60;99.90
3994;DHT22;2011;48.238;13.948;2022-11-20T02:16:49;2.60;99.90
3994;DHT22;2011;48.238;13.948;2022-11-20T02:19:23;2.60;99.90
3994;DHT22;2011;48.238;13.948;2022-11-20T02:21:57;2.60;99.90
3994;DHT22;2011;48.238;13.948;2022-11-20T02:24:28;2.60;99.90
3994;DHT22;2011;48.238;13.948;2022-11-20T02:26:59;2.60;99.90
3994;DHT22;2011;48.238;13.948;2022-11-20T02:29:32;2.60;99.90
3994;DHT22;2011;48.238;13.948;2022-11-20T02:32:01;2.60;99.90
3994;DHT22;2011;48.238;13.948;2022-11-20T02:34:29;2.60;99.90
3994;DHT22;2011;48.238;13.948;2022-11-20T02:36:56;2.60;99.90
3994;DHT22;2011;48.238;13.948;2022-11-20T02:39:25;2.70;99.90
3994;DHT22;2011;48.238;13.948;2022-11-20T02:41:56;2.70;99.90
3994;DHT22;2011;48.238;13.948;2022-11-20T02:44:23;2.70;99.90
3994;DHT22;2011;48.238;13.948;2022-11-20T02:46:50;2.70;99.90
3994;DHT22;2011;48.238;13.948;2022-11-20T02:49:17;2.70;99.90
3994;DHT22;2011;48.238;13.948;2022-11-20T02:51:44;2.70;99.90
3994;DHT22;2011;48.238;13.948;2022-11-20T02:54:11;2.70;99.90
3994;DHT22;2011;48.238;13.948;2022-11-20T02:56:38;2.70;99.90
3994;DHT22;2011;48.238;13.948;2022-11-20T02:59:07;2.70;99.90
3994;DHT22;2011;48.238;13.948;2022-11-20T03:01:34;2.80;99.90
3994;DHT22;2011;48.238;13.948;2022-11-20T03:04:02;2.70;99.90
3994;DHT22;2011;48.238;13.948;2022-11-20T03:06:29;2.70;99.90
3994;DHT22;2011;48.238;13.948;2022-11-20T03:08:56;2.70;99.90
3994;DHT22;2011;48.238;13.948;2022-11-20T03:11:23;2.70;99.90
3994;DHT22;2011;48.238;13.948;2022-11-20T03:13:50;2.70;99.90
3994;DHT22;2011;48.238;13.948;2022-11-20T03:16:20;2.70;99.90
3994;DHT22;2011;48.238;13.948;2022-11-20T03:18:48;2.70;99.90
3994;DHT22;2011;48.238;13.948;2022-11-20T03:21:16;2.70;99.90
3994;DHT22;2011;48.238;13.948;2022-11-20T03:23:43;2.60;99.90
3994;DHT22;2011;48.238;13.948;2022-11-20T03:26:12;2.60;99.90
3994;DHT22;2011;48.238;13.948;2022-11-20T03:28:40;2.70;99.90
3994;DHT22;2011;48.238;13.948;2022-11-20T03:31:09;2.70;99.90
3994;DHT22;2011;48.238;13.948;2022-11-20T03:33:38;2.70;99.90
3994;DHT22;2011;48.238;13.948;2022-11-20T03:36:07;2.70;99.90
3994;DHT22;2011;48.238;13.948;2022-11-20T03:38:35;2.70;99.90
3994;DHT22;2011;48.238;13.948;2022-11-20T03:41:04;2.80;99.90
3994;DHT22;2011;48.238;13.948;2022-11-20T03:43:31;2.80;99.90
3994;DHT22;2011;48.238;13.948;2022-11-20T03:45:59;2.70;99.90
3994;DHT22;2011;48.238;13.948;2022-11-20T03:48:26;2.70;99.90
3994;DHT22;2011;48.238;13.948;2022-11-20T03:51:06;2.70;99.90
3994;DHT22;2011;48.238;13.948;2022-11-20T03:53:33;2.80;99.90
3994;DHT22;2011;48.238;13.948;2022-11-20T03:56:00;2.70;99.90
3994;DHT22;2011;48.238;13.948;2022-11-20T03:58:28;2.80;99.90
3994;DHT22;2011;48.238;13.948;2022-11-20T04:00:55;2.80;99.90
3994;DHT22;2011;48.238;13.948;2022-11-20T04:03:22;2.80;99.90
3994;DHT22;2011;48.238;13.948;2022-11-20T04:05:49;2.80;99.90
3994;DHT22;2011;48.238;13.948;2022-11-20T04:08:17;2.80;99.90
3994;DHT22;2011;48.238;13.948;2022-11-20T04:10:44;2.80;99.90
3994;DHT22;2011;48.238;13.948;2022-11-20T04:13:11;2.80;99.90
3994;DHT22;2011;48.238;13.948;2022-11-20T04:15:38;2.80;99.90
3994;DHT22;2011;48.238;13.948;2022-11-20T04:18:05;2.80;99.90
3994;DHT22;2011;48.238;13.948;2022-11-20T04:20:32;2.80;99.90
3994;DHT22;2011;48.238;13.948;2022-11-20T04:23:00;2.80;99.90
3994;DHT22;2011;48.238;13.948;2022-11-20T04:25:28;2.80;99.90
3994;DHT22;2011;48.238;13.948;2022-11-20T04:27:55;2.80;99.90
3994;DHT22;2011;48.238;13.948;2022-11-20T04:30:22;2.80;99.90
3994;DHT22;2011;48.238;13.948;2022-11-20T04:32:49;2.80;99.90
3994;DHT22;2011;48.238;13.948;2022-11-20T04:35:16;2.80;99.90
3994;DHT22;2011;48.238;13.948;2022-11-20T04:37:43;2.80;99.90
3994;DHT22;2011;48.238;13.948;2022-11-20T04:40:11;2.80;99.90
3994;DHT22;2011;48.238;13.948;2022-11-20T04:42:40;2.80;99.90
3994;DHT22;2011;48.238;13.948;2022-11-20T04:45:07;2.80;99.90
3994;DHT22;2011;48.238;13.948;2022-11-20T04:47:34;2.80;99.90
3994;DHT22;2011;48.238;13.948;2022-11-20T04:50:02;2.80;99.90
3994;DHT22;2011;48.238;13.948;2022-11-20T04:52:29;2.80;99.90
3994;DHT22;2011;48.238;13.948;2022-11-20T04:54:56;2.80;99.90
3994;DHT22;2011;48.238;13.948;2022-11-20T04:57:23;2.80;99.90
3994;DHT22;2011;48.238;13.948;2022-11-20T04:59:51;2.80;99.90
3994;DHT22;2011;48.238;13.948;2022-11-20T05:02:18;2.80;99.90
3994;DHT22;2011;48.238;13.948;2022-11-20T05:04:45;2.80;99.90
3994;DHT22;2011;48.238;13.948;2022-11-20T05:07:12;2.80;99.90
3994;DHT22;2011;48.238;13.948;2022-11-20T05:09:39;2.80;99.90
3994;DHT22;2011;48.238;13.948;2022-11-20T05:12:07;2.80;99.90
3994;DHT22;2011;48.238;13.948;2022-11-20T05:14:34;2.80;99.90
3994;DHT22;2011;48.238;13.948;2022-11-20T05:17:02;2.90;99.90
3994;DHT22;2011;48.238;13.948;2022-11-20T05:19:30;2.80;99.90
3994;DHT22;2011;48.238;13.948;2022-11-20T05:21:57;2.80;99.90
3994;DHT22;2011;48.238;13.948;2022-11-20T05:24:24;2.90;99.90
3994;DHT22;2011;48.238;13.948;2022-11-20T05:26:51;2.90;99.90
3994;DHT22;2011;48.238;13.948;2022-11-20T05:29:18;2.80;99.90
3994;DHT22;2011;48.238;13.948;2022-11-20T05:31:45;2.80;99.90
3994;DHT22;2011;48.238;13.948;2022-11-20T05:34:13;2.90;99.90
3994;DHT22;2011;48.238;13.948;2022-11-20T05:36:40;2.90;99.90
3994;DHT22;2011;48.238;13.948;2022-11-20T05:39:07;2.90;99.90
3994;DHT22;2011;48.238;13.948;2022-11-20T05:41:35;2.90;99.90
3994;DHT22;2011;48.238;13.948;2022-11-20T05:44:02;2.90;99.90
3994;DHT22;2011;48.238;13.948;2022-11-20T05:46:29;2.90;99.90
3994;DHT22;2011;48.238;13.948;2022-11-20T05:48:57;2.90;99.90
3994;DHT22;2011;48.238;13.948;2022-11-20T05:51:26;2.90;99.90
3994;DHT22;2011;48.238;13.948;2022-11-20T05:53:53;2.90;99.90
3994;DHT22;2011;48.238;13.948;2022-11-20T05:56:21;2.90;99.90
3994;DHT22;2011;48.238;13.948;2022-11-20T05:58:49;2.90;99.90
3994;DHT22;2011;48.238;13.948;2022-11-20T06:01:18;2.90;99.90
3994;DHT22;2011;48.238;13.948;2022-11-20T06:03:46;2.90;99.90
3994;DHT22;2011;48.238;13.948;2022-11-20T06:06:14;2.90;99.90
3994;DHT22;2011;48.238;13.948;2022-11-20T06:08:42;2.90;99.90
3994;DHT22;2011;48.238;13.948;2022-11-20T06:11:11;2.90;99.90
3994;DHT22;2011;48.238;13.948;2022-11-20T06:13:39;2.90;99.90
3994;DHT22;2011;48.238;13.948;2022-11-20T06:16:06;2.90;99.90
3994;DHT22;2011;48.238;13.948;2022-11-20T06:18:33;3.00;99.90
3994;DHT22;2011;48.238;13.948;2022-11-20T06:21:02;3.00;99.90
3994;DHT22;2011;48.238;13.948;2022-11-20T06:23:30;3.00;99.90
3994;DHT22;2011;48.238;13.948;2022-11-20T06:26:01;3.00;99.90
3994;DHT22;2011;48.238;13.948;2022-11-20T06:28:28;3.00;99.90
3994;DHT22;2011;48.238;13.948;2022-11-20T06:30:55;3.00;99.90
3994;DHT22;2011;48.238;13.948;2022-11-20T06:33:22;3.00;99.90
3994;DHT22;2011;48.238;13.948;2022-11-20T06:35:49;3.00;99.90
3994;DHT22;2011;48.238;13.948;2022-11-20T06:38:16;3.00;99.90
3994;DHT22;2011;48.238;13.948;2022-11-20T06:40:43;3.00;99.90
3994;DHT22;2011;48.238;13.948;2022-11-20T06:43:12;3.00;99.90
3994;DHT22;2011;48.238;13.948;2022-11-20T06:45:39;3.00;99.90
3994;DHT22;2011;48.238;13.948;2022-11-20T06:48:06;3.00;99.90
3994;DHT22;2011;48.238;13.948;2022-11-20T06:50:33;3.00;99.90
3994;DHT22;2011;48.238;13.948;2022-11-20T06:53:01;3.00;99.90
3994;DHT22;2011;48.238;13.948;2022-11-20T06:55:29;3.00;99.90
3994;DHT22;2011;48.238;13.948;2022-11-20T06:57:56;3.10;99.90
3994;DHT22;2011;48.238;13.948;2022-11-20T07:00:25;3.10;99.90
3994;DHT22;2011;48.238;13.948;2022-11-20T07:02:52;3.10;99.90
3994;DHT22;2011;48.238;13.948;2022-11-20T07:05:19;3.10;99.90
3994;DHT22;2011;48.238;13.948;2022-11-20T07:07:46;3.20;99.90
3994;DHT22;2011;48.238;13.948;2022-11-20T07:10:13;3.20;99.90
3994;DHT22;2011;48.238;13.948;2022-11-20T07:12:40;3.20;99.90
3994;DHT22;2011;48.238;13.948;2022-11-20T07:15:08;3.20;99.90
3994;DHT22;2011;48.238;13.948;2022-11-20T07:17:36;3.20;99.90
3994;DHT22;2011;48.238;13.948;2022-11-20T07:20:03;3.20;99.90
3994;DHT22;2011;48.238;13.948;2022-11-20T07:22:31;3.30;99.90
3994;DHT22;2011;48.238;13.948;2022-11-20T07:24:59;3.20;99.90
3994;DHT22;2011;48.238;13.948;2022-11-20T07:27:26;3.20;99.90
3994;DHT22;2011;48.238;13.948;2022-11-20T07:29:53;3.20;99.90
3994;DHT22;2011;48.238;13.948;2022-11-20T07:32:21;3.20;99.90
3994;DHT22;2011;48.238;13.948;2022-11-20T07:34:49;3.20;99.90
3994;DHT22;2011;48.238;13.948;2022-11-20T07:37:17;3.20;99.90
3994;DHT22;2011;48.238;13.948;2022-11-20T07:39:44;3.20;99.90
3994;DHT22;2011;48.238;13.948;2022-11-20T07:42:11;3.30;99.90
3994;DHT22;2011;48.238;13.948;2022-11-20T07:44:38;3.30;99.90
3994;DHT22;2011;48.238;13.948;2022-11-20T07:47:05;3.30;99.90
3994;DHT22;2011;48.238;13.948;2022-11-20T07:49:32;3.30;99.90
3994;DHT22;2011;48.238;13.948;2022-11-20T07:52:01;3.30;99.90
3994;DHT22;2011;48.238;13.948;2022-11-20T07:54:28;3.30;99.90
3994;DHT22;2011;48.238;13.948;2022-11-20T07:56:55;3.30;99.90
3994;DHT22;2011;48.238;13.948;2022-11-20T07:59:22;3.30;99.90
3994;DHT22;2011;48.238;13.948;2022-11-20T08:01:49;3.30;99.90
3994;DHT22;2011;48.238;13.948;2022-11-20T08:04:16;3.30;99.90
3994;DHT22;2011;48.238;13.948;2022-11-20T08:06:43;3.40;99.90
3994;DHT22;2011;48.238;13.948;2022-11-20T08:09:12;3.40;99.90
3994;DHT22;2011;48.238;13.948;2022-11-20T08:11:39;3.40;99.90
3994;DHT22;2011;48.238;13.948;2022-11-20T08:14:23;3.40;99.90
3994;DHT22;2011;48.238;13.948;2022-11-20T08:16:50;3.50;99.90
3994;DHT22;2011;48.238;13.948;2022-11-20T08:19:17;3.50;99.90
3994;DHT22;2011;48.238;13.948;2022-11-20T08:21:45;3.40;99.90
3994;DHT22;2011;48.238;13.948;2022-11-20T08:24:13;3.50;99.90
3994;DHT22;2011;48.238;13.948;2022-11-20T08:26:40;3.50;99.90
3994;DHT22;2011;48.238;13.948;2022-11-20T08:29:07;3.50;99.90
3994;DHT22;2011;48.238;13.948;2022-11-20T08:31:34;3.50;99.90
3994;DHT22;2011;48.238;13.948;2022-11-20T08:34:01;3.50;99.90
3994;DHT22;2011;48.238;13.948;2022-11-20T08:36:28;3.50;99.90
3994;DHT22;2011;48.238;13.948;2022-11-20T08:38:55;3.60;99.90
3994;DHT22;2011;48.238;13.948;2022-11-20T08:41:24;3.60;99.90
3994;DHT22;2011;48.238;13.948;2022-11-20T08:43:53;3.60;99.90
3994;DHT22;2011;48.238;13.948;2022-11-20T08:46:20;3.60;99.90
3994;DHT22;2011;48.238;13.948;2022-11-20T08:48:47;3.70;99.90
3994;DHT22;2011;48.238;13.948;2022-11-20T08:51:14;3.70;99.90
3994;DHT22;2011;48.238;13.948;2022-11-20T08:53:41;3.80;99.90
3994;DHT22;2011;48.238;13.948;2022-11-20T08:56:09;3.80;99.90
3994;DHT22;2011;48.238;13.948;2022-11-20T08:58:38;3.90;99.90
3994;DHT22;2011;48.238;13.948;2022-11-20T09:01:05;3.90;99.90
3994;DHT22;2011;48.238;13.948;2022-11-20T09:03:31;4.00;99.90
3994;DHT22;2011;48.238;13.948;2022-11-20T09:05:59;4.00;99.90
3994;DHT22;2011;48.238;13.948;2022-11-20T09:08:27;4.10;99.90
3994;DHT22;2011;48.238;13.948;2022-11-20T09:10:55;4.10;99.90
3994;DHT22;2011;48.238;13.948;2022-11-20T09:13:22;4.20;99.90
3994;DHT22;2011;48.238;13.948;2022-11-20T09:15:54;4.20;99.90
3994;DHT22;2011;48.238;13.948;2022-11-20T09:18:22;4.40;99.90
3994;DHT22;2011;48.238;13.948;2022-11-20T09:20:49;4.40;99.90
3994;DHT22;2011;48.238;13.948;2022-11-20T09:23:16;4.50;99.90
3994;DHT22;2011;48.238;13.948;2022-11-20T09:25:43;4.50;99.90
3994;DHT22;2011;48.238;13.948;2022-11-20T09:28:10;4.60;99.90
3994;DHT22;2011;48.238;13.948;2022-11-20T09:30:37;4.70;99.90
3994;DHT22;2011;48.238;13.948;2022-11-20T09:33:06;4.80;99.90
3994;DHT22;2011;48.238;13.948;2022-11-20T09:35:33;4.90;99.90
3994;DHT22;2011;48.238;13.948;2022-11-20T09:38:05;5.00;99.90
3994;DHT22;2011;48.238;13.948;2022-11-20T09:40:32;5.10;99.90
3994;DHT22;2011;48.238;13.948;2022-11-20T09:43:04;5.30;99.90
3994;DHT22;2011;48.238;13.948;2022-11-20T09:45:53;5.40;99.90
3994;DHT22;2011;48.238;13.948;2022-11-20T09:48:36;5.50;99.90
3994;DHT22;2011;48.238;13.948;2022-11-20T09:51:12;5.50;99.90
3994;DHT22;2011;48.238;13.948;2022-11-20T09:53:56;5.60;99.90
3994;DHT22;2011;48.238;13.948;2022-11-20T09:56:28;5.50;99.90
3994;DHT22;2011;48.238;13.948;2022-11-20T09:58:59;5.50;99.90
3994;DHT22;2011;48.238;13.948;2022-11-20T10:01:29;5.40;99.90
3994;DHT22;2011;48.238;13.948;2022-11-20T10:04:02;5.50;99.90
3994;DHT22;2011;48.238;13.948;2022-11-20T10:06:31;5.40;99.90
3994;DHT22;2011;48.238;13.948;2022-11-20T10:09:16;5.50;99.90
3994;DHT22;2011;48.238;13.948;2022-11-20T10:11:51;5.50;99.90
3994;DHT22;2011;48.238;13.948;2022-11-20T10:14:29;5.60;99.90
3994;DHT22;2011;48.238;13.948;2022-11-20T10:17:06;5.60;99.90
3994;DHT22;2011;48.238;13.948;2022-11-20T10:19:54;5.80;99.90
3994;DHT22;2011;48.238;13.948;2022-11-20T10:22:35;5.90;99.90
3994;DHT22;2011;48.238;13.948;2022-11-20T10:25:09;6.10;99.90
3994;DHT22;2011;48.238;13.948;2022-11-20T10:27:52;6.20;99.90
3994;DHT22;2011;48.238;13.948;2022-11-20T10:30:22;6.10;99.90
3994;DHT22;2011;48.238;13.948;2022-11-20T10:32:53;6.10;99.90
3994;DHT22;2011;48.238;13.948;2022-11-20T10:35:34;6.10;99.90
3994;DHT22;2011;48.238;13.948;2022-11-20T10:38:03;6.10;99.90
3994;DHT22;2011;48.238;13.948;2022-11-20T10:40:35;6.10;99.90
3994;DHT22;2011;48.238;13.948;2022-11-20T10:43:09;6.10;99.90
3994;DHT22;2011;48.238;13.948;2022-11-20T10:45:50;6.10;99.90
3994;DHT22;2011;48.238;13.948;2022-11-20T10:48:21;6.10;99.90
3994;DHT22;2011;48.238;13.948;2022-11-20T10:51:08;6.10;99.90
3994;DHT22;2011;48.238;13.948;2022-11-20T10:53:46;6.20;99.90
3994;DHT22;2011;48.238;13.948;2022-11-20T10:56:21;6.20;99.90
3994;DHT22;2011;48.238;13.948;2022-11-20T10:59:04;6.10;99.90
3994;DHT22;2011;48.238;13.948;2022-11-20T11:01:40;6.20;99.90
3994;DHT22;2011;48.238;13.948;2022-11-20T11:04:19;6.20;99.90
3994;DHT22;2011;48.238;13.948;2022-11-20T11:06:54;6.10;99.90
3994;DHT22;2011;48.238;13.948;2022-11-20T11:09:30;6.20;99.90
3994;DHT22;2011;48.238;13.948;2022-11-20T11:11:59;6.20;99.90
3994;DHT22;2011;48.238;13.948;2022-11-20T11:14:26;6.20;99.90
3994;DHT22;2011;48.238;13.948;2022-11-20T11:16:54;6.20;99.90
3994;DHT22;2011;48.238;13.948;2022-11-20T11:19:22;6.20;99.90
3994;DHT22;2011;48.238;13.948;2022-11-20T11:21:53;6.30;99.90
3994;DHT22;2011;48.238;13.948;2022-11-20T11:24:22;6.30;99.90
3994;DHT22;2011;48.238;13.948;2022-11-20T11:26:55;6.30;99.90
3994;DHT22;2011;48.238;13.948;2022-11-20T11:29:22;6.40;99.90
3994;DHT22;2011;48.238;13.948;2022-11-20T11:32:03;6.40;99.90
3994;DHT22;2011;48.238;13.948;2022-11-20T11:34:30;6.40;99.90
3994;DHT22;2011;48.238;13.948;2022-11-20T11:37:01;6.50;99.90
3994;DHT22;2011;48.238;13.948;2022-11-20T11:39:30;6.50;99.90
3994;DHT22;2011;48.238;13.948;2022-11-20T11:41:58;6.50;99.90
3994;DHT22;2011;48.238;13.948;2022-11-20T11:44:28;6.50;99.90
3994;DHT22;2011;48.238;13.948;2022-11-20T11:47:21;6.50;99.90
3994;DHT22;2011;48.238;13.948;2022-11-20T11:49:49;6.50;99.90
3994;DHT22;2011;48.238;13.948;2022-11-20T11:52:20;6.60;99.90
3994;DHT22;2011;48.238;13.948;2022-11-20T11:54:52;6.60;99.90
3994;DHT22;2011;48.238;13.948;2022-11-20T11:57:26;6.60;99.90
3994;DHT22;2011;48.238;13.948;2022-11-20T12:00:02;6.60;99.90
3994;DHT22;2011;48.238;13.948;2022-11-20T12:02:35;6.60;99.90
3994;DHT22;2011;48.238;13.948;2022-11-20T12:05:12;6.60;99.90
3994;DHT22;2011;48.238;13.948;2022-11-20T12:07:44;6.60;99.90
3994;DHT22;2011;48.238;13.948;2022-11-20T12:10:18;6.70;99.90
3994;DHT22;2011;48.238;13.948;2022-11-20T12:12:50;6.70;99.90
3994;DHT22;2011;48.238;13.948;2022-11-20T12:15:26;6.70;99.90
3994;DHT22;2011;48.238;13.948;2022-11-20T12:17:55;6.80;99.90
3994;DHT22;2011;48.238;13.948;2022-11-20T12:20:25;6.80;99.90
3994;DHT22;2011;48.238;13.948;2022-11-20T12:22:59;6.80;99.90
3994;DHT22;2011;48.238;13.948;2022-11-20T12:25:30;6.90;99.90
3994;DHT22;2011;48.238;13.948;2022-11-20T12:28:28;7.00;99.90
3994;DHT22;2011;48.238;13.948;2022-11-20T12:31:19;7.10;99.90
3994;DHT22;2011;48.238;13.948;2022-11-20T12:34:08;7.20;99.90
3994;DHT22;2011;48.238;13.948;2022-11-20T12:36:42;7.20;99.90
3994;DHT22;2011;48.238;13.948;2022-11-20T12:39:21;7.30;99.90
3994;DHT22;2011;48.238;13.948;2022-11-20T12:42:04;7.30;99.90
3994;DHT22;2011;48.238;13.948;2022-11-20T12:45:20;7.40;99.90
3994;DHT22;2011;48.238;13.948;2022-11-20T12:47:58;7.40;99.90
3994;DHT22;2011;48.238;13.948;2022-11-20T12:50:40;7.40;99.90
3994;DHT22;2011;48.238;13.948;2022-11-20T12:53:19;7.50;99.90
3994;DHT22;2011;48.238;13.948;2022-11-20T12:55:56;7.50;99.90
3994;DHT22;2011;48.238;13.948;2022-11-20T12:58:33;7.50;99.90
3994;DHT22;2011;48.238;13.948;2022-11-20T13:01:12;7.60;99.90
3994;DHT22;2011;48.238;13.948;2022-11-20T13:04:11;7.60;99.90
3994;DHT22;2011;48.238;13.948;2022-11-20T13:06:40;7.60;99.90
3994;DHT22;2011;48.238;13.948;2022-11-20T13:09:09;7.60;99.90
3994;DHT22;2011;48.238;13.948;2022-11-20T13:11:42;7.60;99.90
3994;DHT22;2011;48.238;13.948;2022-11-20T13:14:26;7.60;99.90
3994;DHT22;2011;48.238;13.948;2022-11-20T13:17:00;7.60;99.90
3994;DHT22;2011;48.238;13.948;2022-11-20T13:19:31;7.60;99.90
3994;DHT22;2011;48.238;13.948;2022-11-20T13:21:58;7.50;99.90
3994;DHT22;2011;48.238;13.948;2022-11-20T13:24:26;7.50;99.90
3994;DHT22;2011;48.238;13.948;2022-11-20T13:27:17;7.50;99.90
3994;DHT22;2011;48.238;13.948;2022-11-20T13:29:46;7.60;99.90
3994;DHT22;2011;48.238;13.948;2022-11-20T13:32:15;7.50;99.90
3994;DHT22;2011;48.238;13.948;2022-11-20T13:34:52;7.50;99.90
3994;DHT22;2011;48.238;13.948;2022-11-20T13:37:27;7.50;99.90
3994;DHT22;2011;48.238;13.948;2022-11-20T13:40:19;7.50;99.90
3994;DHT22;2011;48.238;13.948;2022-11-20T13:42:56;7.50;99.90
3994;DHT22;2011;48.238;13.948;2022-11-20T13:45:26;7.50;99.90
3994;DHT22;2011;48.238;13.948;2022-11-20T13:47:54;7.50;99.90
3994;DHT22;2011;48.238;13.948;2022-11-20T13:50:37;7.50;99.90
3994;DHT22;2011;48.238;13.948;2022-11-20T13:53:13;7.50;99.90
3994;DHT22;2011;48.238;13.948;2022-11-20T13:55:47;7.50;99.90
3994;DHT22;2011;48.238;13.948;2022-11-20T13:58:34;7.50;99.90
3994;DHT22;2011;48.238;13.948;2022-11-20T14:01:10;7.50;99.90
3994;DHT22;2011;48.238;13.948;2022-11-20T14:03:38;7.50;99.90
3994;DHT22;2011;48.238;13.948;2022-11-20T14:06:12;7.50;99.90
3994;DHT22;2011;48.238;13.948;2022-11-20T14:08:42;7.50;99.90
3994;DHT22;2011;48.238;13.948;2022-11-20T14:11:16;7.50;99.90
3994;DHT22;2011;48.238;13.948;2022-11-20T14:13:56;7.40;99.90
3994;DHT22;2011;48.238;13.948;2022-11-20T14:16:26;7.40;99.90
3994;DHT22;2011;48.238;13.948;2022-11-20T14:18:54;7.40;99.90
3994;DHT22;2011;48.238;13.948;2022-11-20T14:21:23;7.40;99.90
3994;DHT22;2011;48.238;13.948;2022-11-20T14:23:53;7.50;99.90
3994;DHT22;2011;48.238;13.948;2022-11-20T14:26:20;7.50;99.90
3994;DHT22;2011;48.238;13.948;2022-11-20T14:28:49;7.50;99.90
3994;DHT22;2011;48.238;13.948;2022-11-20T14:31:23;7.60;99.90
3994;DHT22;2011;48.238;13.948;2022-11-20T14:33:51;7.70;99.90
3994;DHT22;2011;48.238;13.948;2022-11-20T14:36:20;7.60;99.90
3994;DHT22;2011;48.238;13.948;2022-11-20T14:38:49;7.60;99.90
3994;DHT22;2011;48.238;13.948;2022-11-20T14:41:18;7.60;99.90
3994;DHT22;2011;48.238;13.948;2022-11-20T14:43:46;7.60;99.90
3994;DHT22;2011;48.238;13.948;2022-11-20T14:46:14;7.70;99.90
3994;DHT22;2011;48.238;13.948;2022-11-20T14:48:45;7.70;99.90
3994;DHT22;2011;48.238;13.948;2022-11-20T14:51:27;7.60;99.90
3994;DHT22;2011;48.238;13.948;2022-11-20T14:53:56;7.60;99.90
3994;DHT22;2011;48.238;13.948;2022-11-20T14:56:23;7.60;99.90
3994;DHT22;2011;48.238;13.948;2022-11-20T14:58:57;7.50;99.90
3994;DHT22;2011;48.238;13.948;2022-11-20T15:01:30;7.50;99.90
3994;DHT22;2011;48.238;13.948;2022-11-20T15:04:04;7.50;99.90
3994;DHT22;2011;48.238;13.948;2022-11-20T15:06:31;7.50;99.90
3994;DHT22;2011;48.238;13.948;2022-11-20T15:08:58;7.40;99.90
3994;DHT22;2011;48.238;13.948;2022-11-20T15:11:29;7.40;99.90
3994;DHT22;2011;48.238;13.948;2022-11-20T15:13:58;7.40;99.90
3994;DHT22;2011;48.238;13.948;2022-11-20T15:16:28;7.40;99.90
3994;DHT22;2011;48.238;13.948;2022-11-20T15:18:55;7.40;99.90
3994;DHT22;2011;48.238;13.948;2022-11-20T15:21:23;7.30;99.90
3994;DHT22;2011;48.238;13.948;2022-11-20T15:23:50;7.30;99.90
3994;DHT22;2011;48.238;13.948;2022-11-20T15:26:22;7.30;99.90
3994;DHT22;2011;48.238;13.948;2022-11-20T15:28:50;7.30;99.90
3994;DHT22;2011;48.238;13.948;2022-11-20T15:31:19;7.30;99.90
3994;DHT22;2011;48.238;13.948;2022-11-20T15:33:46;7.20;99.90
3994;DHT22;2011;48.238;13.948;2022-11-20T15:36:13;7.20;99.90
3994;DHT22;2011;48.238;13.948;2022-11-20T15:38:42;7.20;99.90
3994;DHT22;2011;48.238;13.948;2022-11-20T15:41:09;7.20;99.90
3994;DHT22;2011;48.238;13.948;2022-11-20T15:43:36;7.20;99.90
3994;DHT22;2011;48.238;13.948;2022-11-20T15:46:05;7.30;99.90
3994;DHT22;2011;48.238;13.948;2022-11-20T15:48:36;7.20;99.90
3994;DHT22;2011;48.238;13.948;2022-11-20T15:51:11;7.20;99.90
3994;DHT22;2011;48.238;13.948;2022-11-20T15:53:43;7.20;99.90
3994;DHT22;2011;48.238;13.948;2022-11-20T15:56:12;7.20;99.90
3994;DHT22;2011;48.238;13.948;2022-11-20T15:58:39;7.10;99.90
3994;DHT22;2011;48.238;13.948;2022-11-20T16:01:10;7.10;99.90
3994;DHT22;2011;48.238;13.948;2022-11-20T16:03:37;7.00;99.90
3994;DHT22;2011;48.238;13.948;2022-11-20T16:06:04;7.00;99.90
3994;DHT22;2011;48.238;13.948;2022-11-20T16:08:31;6.90;99.90
3994;DHT22;2011;48.238;13.948;2022-11-20T16:11:00;6.90;99.90
3994;DHT22;2011;48.238;13.948;2022-11-20T16:13:27;6.90;99.90
3994;DHT22;2011;48.238;13.948;2022-11-20T16:16:17;6.90;99.90
3994;DHT22;2011;48.238;13.948;2022-11-20T16:18:45;6.90;99.90
3994;DHT22;2011;48.238;13.948;2022-11-20T16:21:12;6.90;99.90